createdAt,value
2023-03-29T00:02:17.477Z,56.70
2023-03-29T00:04:48.724Z,56.75
2023-03-29T00:07:17.785Z,56.53
2023-03-29T00:09:48.892Z,56.56
2023-03-29T00:12:19.081Z,56.54
2023-03-29T00:14:50.566Z,56.62
2023-03-29T00:17:21.110Z,56.78
2023-03-29T00:19:50.298Z,56.68
2023-03-29T00:22:21.638Z,56.96
2023-03-29T00:24:54.405Z,56.83
2023-03-29T00:27:24.729Z,56.88
2023-03-29T00:29:56.226Z,57.21
2023-03-29T00:32:26.516Z,56.93
2023-03-29T00:34:57.226Z,57.11
2023-03-29T00:37:30.236Z,57.09
2023-03-29T00:39:59.191Z,57.29
2023-03-29T00:42:28.445Z,57.15
2023-03-29T00:45:11.016Z,57.18
2023-03-29T00:47:40.297Z,57.01
2023-03-29T00:50:13.796Z,57.10
2023-03-29T00:52:44.960Z,57.09
2023-03-29T00:55:20.537Z,57.04
2023-03-29T00:57:53.336Z,57.03
2023-03-29T01:00:30.033Z,57.16
2023-03-29T01:03:01.673Z,57.13
2023-03-29T01:05:34.532Z,57.35
2023-03-29T01:08:08.304Z,57.42
2023-03-29T01:10:42.145Z,57.46
2023-03-29T01:13:14.759Z,57.67
2023-03-29T01:15:47.279Z,57.82
2023-03-29T01:18:20.112Z,57.40
2023-03-29T01:20:49.530Z,57.62
2023-03-29T01:23:22.418Z,57.62
2023-03-29T01:25:52.730Z,57.59
2023-03-29T01:28:26.957Z,57.61
2023-03-29T01:31:10.259Z,57.66
2023-03-29T01:33:43.847Z,57.60
2023-03-29T01:36:20.941Z,57.86
2023-03-29T01:38:58.228Z,57.92
2023-03-29T01:41:36.678Z,57.87
2023-03-29T01:44:11.501Z,57.82
2023-03-29T01:46:47.022Z,57.93
2023-03-29T01:49:34.543Z,58.03
2023-03-29T01:52:10.657Z,57.95
2023-03-29T01:54:42.963Z,57.90
2023-03-29T01:57:14.817Z,58.04
2023-03-29T01:59:47.371Z,57.79
2023-03-29T02:02:20.001Z,57.74
2023-03-29T02:04:52.229Z,57.88
2023-03-29T02:07:24.667Z,58.05
2023-03-29T02:09:54.845Z,58.06
2023-03-29T02:12:25.223Z,58.12
2023-03-29T02:14:59.884Z,58.38
2023-03-29T02:17:31.043Z,58.42
2023-03-29T02:20:21.078Z,58.41
2023-03-29T02:22:54.069Z,58.47
2023-03-29T02:25:24.998Z,58.43
2023-03-29T02:27:55.344Z,58.43
2023-03-29T02:30:28.649Z,58.53
2023-03-29T02:33:00.963Z,58.39
2023-03-29T02:35:35.445Z,58.70
2023-03-29T02:38:05.928Z,58.64
2023-03-29T02:40:35.981Z,58.68
2023-03-29T02:43:07.405Z,58.63
2023-03-29T02:45:39.543Z,58.58
2023-03-29T02:48:12.786Z,58.60
2023-03-29T02:50:44.485Z,58.71
2023-03-29T02:53:15.589Z,58.77
2023-03-29T02:55:46.512Z,58.91
2023-03-29T02:58:18.154Z,58.70
2023-03-29T03:00:49.052Z,58.74
2023-03-29T03:03:18.473Z,58.66
2023-03-29T03:05:51.325Z,58.82
2023-03-29T03:08:21.531Z,58.84
2023-03-29T03:10:50.837Z,58.88
2023-03-29T03:13:21.283Z,58.70
2023-03-29T03:15:52.141Z,59.12
2023-03-29T03:18:22.943Z,58.97
2023-03-29T03:20:56.707Z,59.07
2023-03-29T03:23:31.065Z,59.16
2023-03-29T03:26:01.483Z,59.18
2023-03-29T03:28:33.663Z,59.33
2023-03-29T03:31:03.720Z,59.36
2023-03-29T03:34:00.067Z,59.34
2023-03-29T03:36:49.893Z,59.32
2023-03-29T03:39:18.705Z,59.35
2023-03-29T03:41:49.487Z,59.32
2023-03-29T03:44:19.186Z,59.29
2023-03-29T03:46:51.507Z,59.29
2023-03-29T03:49:22.264Z,59.67
2023-03-29T03:51:54.965Z,59.55
2023-03-29T03:54:24.586Z,59.46
2023-03-29T03:57:17.865Z,59.51
2023-03-29T03:59:53.961Z,59.71
2023-03-29T04:02:31.190Z,59.64
2023-03-29T04:05:03.724Z,59.62
2023-03-29T04:07:37.759Z,59.76
2023-03-29T04:10:45.361Z,59.72
2023-03-29T04:13:20.703Z,59.82
2023-03-29T04:16:09.337Z,59.79
2023-03-29T04:18:40.830Z,59.80
2023-03-29T04:21:10.903Z,59.90
2023-03-29T04:23:43.515Z,59.85
2023-03-29T04:26:12.747Z,60.04
2023-03-29T04:28:46.894Z,60.01
2023-03-29T04:31:23.336Z,59.95
2023-03-29T04:34:26.340Z,60.06
2023-03-29T04:36:56.702Z,60.05
2023-03-29T04:39:33.526Z,60.15
2023-03-29T04:42:04.182Z,60.19
2023-03-29T04:44:35.711Z,59.95
2023-03-29T04:47:09.603Z,60.05
2023-03-29T04:49:52.324Z,60.06
2023-03-29T04:52:33.695Z,60.30
2023-03-29T04:55:04.444Z,60.20
2023-03-29T04:57:47.645Z,60.24
2023-03-29T05:00:28.659Z,60.30
2023-03-29T05:03:13.913Z,60.37
2023-03-29T05:05:52.127Z,60.42
2023-03-29T05:08:23.620Z,60.47
2023-03-29T05:11:12.852Z,60.50
2023-03-29T05:13:43.070Z,60.68
2023-03-29T05:16:12.412Z,60.68
2023-03-29T05:18:41.489Z,60.61
2023-03-29T05:21:12.488Z,60.83
2023-03-29T05:23:47.040Z,60.67
2023-03-29T05:26:20.709Z,60.89
2023-03-29T05:28:54.874Z,60.83
2023-03-29T05:31:24.386Z,60.84
2023-03-29T05:33:56.326Z,61.06
2023-03-29T05:36:28.612Z,61.08
2023-03-29T05:38:58.351Z,61.23
2023-03-29T05:41:30.744Z,61.19
2023-03-29T05:44:19.729Z,61.18
2023-03-29T05:46:53.008Z,61.38
2023-03-29T05:49:21.975Z,61.32
2023-03-29T05:52:04.539Z,61.42
2023-03-29T05:54:34.521Z,61.26
2023-03-29T05:57:03.742Z,61.39
2023-03-29T05:59:34.683Z,61.33
2023-03-29T06:02:07.221Z,61.42
2023-03-29T06:04:39.289Z,61.58
2023-03-29T06:07:27.236Z,61.70
2023-03-29T06:10:18.444Z,61.84
2023-03-29T06:12:51.963Z,61.73
2023-03-29T06:15:25.785Z,61.57
2023-03-29T06:18:02.960Z,61.87
2023-03-29T06:20:57.522Z,61.74
2023-03-29T06:23:29.842Z,61.54
2023-03-29T06:26:00.679Z,61.50
2023-03-29T06:28:30.678Z,61.68
2023-03-29T06:31:03.354Z,61.63
2023-03-29T06:33:38.891Z,61.84
2023-03-29T06:36:27.074Z,61.95
2023-03-29T06:38:57.591Z,61.64
2023-03-29T06:41:50.294Z,61.92
2023-03-29T06:44:39.330Z,61.80
2023-03-29T06:47:17.189Z,61.88
2023-03-29T06:49:47.673Z,61.79
2023-03-29T06:52:48.411Z,60.60
2023-03-29T06:55:20.599Z,57.74
2023-03-29T06:57:52.808Z,56.12
2023-03-29T07:00:36.748Z,54.51
2023-03-29T07:03:13.952Z,53.29
2023-03-29T07:05:46.349Z,52.75
2023-03-29T07:08:17.609Z,51.81
2023-03-29T07:11:00.168Z,50.86
2023-03-29T07:13:52.112Z,49.64
2023-03-29T07:16:24.725Z,50.49
2023-03-29T07:19:35.640Z,50.13
2023-03-29T07:22:06.129Z,50.18
2023-03-29T07:24:45.249Z,48.96
2023-03-29T07:27:17.005Z,49.30
2023-03-29T07:29:56.318Z,49.59
2023-03-29T07:32:26.010Z,49.23
2023-03-29T07:35:09.450Z,48.77
2023-03-29T07:37:41.372Z,47.70
2023-03-29T07:40:24.732Z,48.55
2023-03-29T07:42:59.586Z,48.74
2023-03-29T07:45:33.289Z,47.78
2023-03-29T07:48:11.210Z,47.96
2023-03-29T07:50:56.657Z,48.79
2023-03-29T07:53:31.760Z,48.59
2023-03-29T07:56:03.601Z,48.77
2023-03-29T07:58:47.126Z,48.24
2023-03-29T08:01:20.727Z,48.63
2023-03-29T08:07:21.805Z,47.59
2023-03-29T08:10:06.395Z,46.57
2023-03-29T08:12:54.634Z,48.00
2023-03-29T08:15:31.534Z,47.58
2023-03-29T08:18:02.282Z,47.80
2023-03-29T08:21:24.155Z,47.65
2023-03-29T08:23:54.516Z,46.57
2023-03-29T08:26:29.250Z,46.70
2023-03-29T08:29:00.080Z,46.91
2023-03-29T08:31:31.144Z,46.87
2023-03-29T08:34:03.523Z,47.25
2023-03-29T08:37:05.257Z,47.19
2023-03-29T08:39:42.550Z,46.53
2023-03-29T08:42:56.362Z,46.86
2023-03-29T08:45:39.680Z,47.63
2023-03-29T08:48:30.823Z,47.25
2023-03-29T08:51:07.780Z,47.27
2023-03-29T08:53:45.549Z,45.33
2023-03-29T08:56:34.135Z,46.47
2023-03-29T08:59:36.245Z,45.94
2023-03-29T09:02:14.749Z,45.99
2023-03-29T09:04:45.347Z,46.26
2023-03-29T09:07:33.356Z,45.50
2023-03-29T09:10:04.015Z,43.99
2023-03-29T09:12:58.406Z,44.81
2023-03-29T09:15:56.839Z,44.23
2023-03-29T09:18:34.767Z,44.55
2023-03-29T09:25:26.009Z,42.71
2023-03-29T09:28:00.844Z,42.00
2023-03-29T09:31:02.437Z,42.43
2023-03-29T09:33:43.104Z,42.37
2023-03-29T09:36:41.344Z,42.36
2023-03-29T09:39:18.104Z,41.91
2023-03-29T09:42:09.692Z,41.33
2023-03-29T09:44:44.288Z,39.31
2023-03-29T09:47:19.995Z,41.01
2023-03-29T09:49:52.180Z,40.95
2023-03-29T09:52:23.077Z,39.96
2023-03-29T09:55:04.262Z,40.64
2023-03-29T09:57:53.232Z,39.78
2023-03-29T10:00:26.493Z,41.25
2023-03-29T10:02:58.343Z,40.06
2023-03-29T10:05:41.279Z,38.67
2023-03-29T10:08:20.405Z,39.56
2023-03-29T10:10:52.630Z,41.03
2023-03-29T10:13:28.475Z,41.03
2023-03-29T10:16:09.308Z,40.16
2023-03-29T10:18:45.733Z,39.65
2023-03-29T10:21:25.239Z,38.97
2023-03-29T10:24:00.551Z,39.22
2023-03-29T10:26:32.335Z,39.01
2023-03-29T10:29:04.062Z,38.74
2023-03-29T10:31:34.099Z,39.24
2023-03-29T10:34:05.209Z,39.35
2023-03-29T10:36:34.678Z,39.02
2023-03-29T10:39:06.446Z,38.33
2023-03-29T10:41:37.325Z,37.34
2023-03-29T10:44:06.399Z,37.85
2023-03-29T10:46:42.806Z,37.04
2023-03-29T10:49:21.248Z,37.54
2023-03-29T10:51:55.959Z,37.76
2023-03-29T10:54:31.188Z,37.02
2023-03-29T10:57:04.100Z,36.20
2023-03-29T10:59:36.598Z,36.45
2023-03-29T11:02:15.556Z,36.85
2023-03-29T11:04:47.298Z,36.54
2023-03-29T11:07:27.381Z,36.54
2023-03-29T11:10:15.122Z,34.65
2023-03-29T11:12:55.114Z,35.51
2023-03-29T11:15:49.385Z,35.99
2023-03-29T11:18:30.948Z,36.14
2023-03-29T11:21:27.734Z,36.58
2023-03-29T11:24:13.192Z,36.81
2023-03-29T11:27:07.380Z,36.04
2023-03-29T11:29:48.299Z,35.34
2023-03-29T11:32:18.832Z,35.08
2023-03-29T11:34:49.870Z,35.01
2023-03-29T11:37:27.992Z,36.16
2023-03-29T11:40:18.320Z,35.67
2023-03-29T11:42:50.059Z,35.97
2023-03-29T11:45:26.789Z,35.93
2023-03-29T11:48:13.858Z,35.31
2023-03-29T11:50:50.462Z,35.25
2023-03-29T11:53:27.316Z,35.79
2023-03-29T11:55:57.617Z,35.41
2023-03-29T11:58:32.659Z,34.57
2023-03-29T12:01:13.502Z,34.40
2023-03-29T12:03:46.915Z,34.81
2023-03-29T12:06:32.481Z,34.51
2023-03-29T12:09:16.942Z,34.53
2023-03-29T12:11:51.870Z,34.50
2023-03-29T12:14:28.344Z,34.57
2023-03-29T12:17:05.590Z,34.13
2023-03-29T12:23:23.090Z,33.82
2023-03-29T12:26:04.645Z,33.75
2023-03-29T12:28:52.156Z,34.23
2023-03-29T12:31:40.310Z,34.50
2023-03-29T12:34:35.721Z,34.74
2023-03-29T12:37:48.060Z,34.22
2023-03-29T12:40:53.869Z,34.48
2023-03-29T12:43:43.808Z,34.05
2023-03-29T12:46:36.523Z,34.40
2023-03-29T12:49:21.531Z,34.78
2023-03-29T12:52:00.127Z,34.60
2023-03-29T12:54:31.949Z,34.26
2023-03-29T12:57:02.972Z,34.55
2023-03-29T12:59:49.416Z,34.82
2023-03-29T13:02:39.512Z,34.27
2023-03-29T13:05:27.906Z,34.29
2023-03-29T13:07:58.116Z,34.84
2023-03-29T13:10:35.002Z,34.69
2023-03-29T13:13:12.970Z,34.13
2023-03-29T13:15:44.321Z,34.30
2023-03-29T13:18:22.084Z,34.45
2023-03-29T13:21:14.408Z,34.66
2023-03-29T13:24:03.375Z,34.64
2023-03-29T13:26:39.508Z,34.73
2023-03-29T13:29:24.873Z,34.28
2023-03-29T13:32:14.588Z,34.14
2023-03-29T13:34:44.025Z,34.10
2023-03-29T13:37:23.450Z,33.75
2023-03-29T13:39:56.107Z,34.23
2023-03-29T13:42:27.599Z,34.39
2023-03-29T13:45:07.012Z,34.18
2023-03-29T13:47:43.187Z,34.35
2023-03-29T13:50:19.207Z,34.48
2023-03-29T13:53:00.261Z,34.20
2023-03-29T13:55:38.432Z,34.39
2023-03-29T13:58:26.420Z,34.47
2023-03-29T14:01:13.096Z,34.76
2023-03-29T14:03:46.205Z,35.06
2023-03-29T14:06:18.850Z,34.75
2023-03-29T14:08:49.917Z,34.95
2023-03-29T14:11:27.295Z,34.84
2023-03-29T14:13:57.395Z,34.93
2023-03-29T14:16:33.925Z,34.90
2023-03-29T14:19:05.513Z,35.32
2023-03-29T14:21:34.272Z,35.16
2023-03-29T14:24:04.505Z,35.04
2023-03-29T14:26:35.009Z,35.14
2023-03-29T14:29:04.787Z,35.06
2023-03-29T14:31:35.926Z,35.34
2023-03-29T14:34:06.574Z,35.27
2023-03-29T14:36:37.664Z,35.20
2023-03-29T14:39:11.299Z,34.98
2023-03-29T14:41:42.913Z,34.89
2023-03-29T14:44:13.578Z,35.09
2023-03-29T14:46:47.453Z,35.36
2023-03-29T14:49:19.948Z,35.32
2023-03-29T14:51:58.883Z,35.39
2023-03-29T14:54:34.340Z,35.42
2023-03-29T14:57:08.618Z,35.34
2023-03-29T14:59:40.061Z,35.31
2023-03-29T15:02:30.078Z,35.43
2023-03-29T15:05:01.666Z,35.70
2023-03-29T15:07:33.033Z,35.73
2023-03-29T15:10:06.169Z,35.61
2023-03-29T15:12:36.093Z,35.79
2023-03-29T15:15:15.211Z,35.90
2023-03-29T15:17:55.707Z,36.00
2023-03-29T15:24:33.258Z,35.87
2023-03-29T15:27:04.766Z,35.88
2023-03-29T15:29:36.578Z,36.04
2023-03-29T15:32:11.251Z,36.14
2023-03-29T15:34:50.131Z,36.08
2023-03-29T15:37:23.890Z,36.10
2023-03-29T15:39:54.176Z,36.20
2023-03-29T15:42:23.601Z,35.95
2023-03-29T15:44:56.767Z,36.21
2023-03-29T15:47:32.503Z,36.63
2023-03-29T15:50:10.711Z,36.59
2023-03-29T15:52:48.634Z,36.57
2023-03-29T15:55:20.476Z,36.72
2023-03-29T15:57:49.982Z,36.90
2023-03-29T16:00:22.358Z,37.15
2023-03-29T16:02:52.283Z,36.94
2023-03-29T16:05:24.203Z,37.18
2023-03-29T16:07:53.446Z,37.18
2023-03-29T16:10:23.329Z,36.81
2023-03-29T16:13:00.186Z,36.88
2023-03-29T16:15:39.776Z,37.09
2023-03-29T16:18:18.474Z,37.18
2023-03-29T16:21:02.893Z,37.25
2023-03-29T16:23:37.366Z,37.52
2023-03-29T16:26:06.821Z,37.26
2023-03-29T16:28:36.158Z,37.61
2023-03-29T16:31:07.089Z,37.46
2023-03-29T16:33:37.527Z,37.50
2023-03-29T16:36:12.562Z,37.75
2023-03-29T16:38:49.525Z,38.11
2023-03-29T16:41:28.689Z,38.06
2023-03-29T16:44:24.145Z,38.19
2023-03-29T16:47:04.158Z,37.82
2023-03-29T16:49:43.052Z,37.93
2023-03-29T16:52:18.833Z,38.09
2023-03-29T16:54:56.648Z,38.32
2023-03-29T16:57:38.125Z,38.09
2023-03-29T17:00:20.076Z,38.19
2023-03-29T17:03:09.353Z,38.39
2023-03-29T17:05:57.158Z,38.43
2023-03-29T17:08:48.764Z,38.58
2023-03-29T17:11:31.161Z,38.53
2023-03-29T17:14:10.851Z,38.49
2023-03-29T17:17:12.243Z,38.71
2023-03-29T17:24:12.827Z,38.81
2023-03-29T17:26:54.796Z,38.79
2023-03-29T17:29:38.387Z,38.87
2023-03-29T17:32:08.256Z,38.82
2023-03-29T17:34:39.730Z,39.12
2023-03-29T17:37:15.409Z,38.94
2023-03-29T17:39:46.854Z,39.30
2023-03-29T17:42:23.236Z,39.15
2023-03-29T17:44:54.682Z,39.42
2023-03-29T17:47:25.846Z,39.24
2023-03-29T17:49:58.054Z,39.28
2023-03-29T17:52:28.798Z,39.45
2023-03-29T17:55:01.154Z,39.53
2023-03-29T17:57:42.398Z,39.52
2023-03-29T18:00:14.484Z,39.53
2023-03-29T18:02:47.048Z,39.47
2023-03-29T18:05:21.081Z,39.50
2023-03-29T18:07:52.599Z,39.52
2023-03-29T18:10:25.506Z,39.69
2023-03-29T18:13:01.751Z,39.59
2023-03-29T18:15:35.572Z,39.75
2023-03-29T18:18:08.443Z,39.71
2023-03-29T18:20:47.908Z,39.72
2023-03-29T18:23:18.680Z,39.84
2023-03-29T18:25:50.096Z,39.95
2023-03-29T18:28:26.412Z,39.81
2023-03-29T18:31:00.264Z,39.84
2023-03-29T18:33:35.889Z,40.06
2023-03-29T18:36:10.834Z,40.02
2023-03-29T18:38:44.609Z,40.19
2023-03-29T18:41:16.597Z,40.06
2023-03-29T18:43:49.901Z,40.24
2023-03-29T18:46:22.660Z,40.24
2023-03-29T18:49:14.362Z,40.29
2023-03-29T18:51:49.733Z,40.10
2023-03-29T18:54:24.590Z,40.31
2023-03-29T18:56:57.817Z,40.51
2023-03-29T18:59:34.075Z,40.33
2023-03-29T19:02:08.489Z,40.44
2023-03-29T19:04:39.453Z,40.29
2023-03-29T19:07:11.446Z,40.57
2023-03-29T19:09:44.732Z,40.68
2023-03-29T19:12:26.846Z,40.57
2023-03-29T19:15:00.771Z,40.54
2023-03-29T19:17:34.521Z,40.65
2023-03-29T19:20:14.385Z,40.52
2023-03-29T19:22:47.738Z,40.45
2023-03-29T19:25:25.816Z,40.66
2023-03-29T19:27:58.105Z,40.81
2023-03-29T19:30:33.489Z,40.83
2023-03-29T19:33:06.185Z,40.83
2023-03-29T19:35:44.715Z,40.74
2023-03-29T19:38:16.976Z,41.02
2023-03-29T19:40:51.757Z,41.11
2023-03-29T19:43:25.817Z,40.88
2023-03-29T19:45:57.862Z,41.14
2023-03-29T19:48:31.548Z,41.29
2023-03-29T19:51:06.477Z,41.42
2023-03-29T19:53:39.167Z,41.38
2023-03-29T19:56:25.228Z,41.57
2023-03-29T19:58:58.854Z,41.51
2023-03-29T20:01:34.849Z,41.70
2023-03-29T20:04:10.501Z,41.54
2023-03-29T20:06:40.301Z,41.63
2023-03-29T20:09:12.444Z,41.78
2023-03-29T20:11:45.406Z,41.79
2023-03-29T20:14:15.431Z,41.83
2023-03-29T20:16:46.186Z,41.90
2023-03-29T20:19:17.707Z,41.84
2023-03-29T20:21:51.219Z,41.89
2023-03-29T20:24:20.451Z,42.05
2023-03-29T20:26:50.006Z,41.96
2023-03-29T20:29:20.197Z,42.07
2023-03-29T20:31:50.145Z,42.12
2023-03-29T20:34:20.976Z,42.06
2023-03-29T20:36:49.832Z,42.15
2023-03-29T20:39:20.097Z,41.99
2023-03-29T20:41:49.505Z,42.23
2023-03-29T20:44:18.983Z,42.21
2023-03-29T20:47:03.624Z,42.41
2023-03-29T20:49:39.081Z,42.32
2023-03-29T20:52:11.126Z,42.43
2023-03-29T20:54:40.858Z,42.41
2023-03-29T20:57:17.218Z,42.49
2023-03-29T20:59:48.237Z,42.53
2023-03-29T21:02:19.394Z,42.46
2023-03-29T21:04:52.253Z,42.43
2023-03-29T21:07:21.973Z,42.71
2023-03-29T21:09:51.302Z,42.66
2023-03-29T21:12:21.176Z,42.67
2023-03-29T21:14:51.817Z,42.74
2023-03-29T21:17:21.998Z,42.61
2023-03-29T21:20:41.227Z,42.86
2023-03-29T21:23:11.547Z,42.78
2023-03-29T21:25:43.474Z,42.85
2023-03-29T21:28:13.751Z,42.78
2023-03-29T21:30:44.618Z,43.16
2023-03-29T21:33:13.411Z,42.90
2023-03-29T21:35:42.509Z,43.08
2023-03-29T21:38:11.686Z,43.46
2023-03-29T21:40:40.411Z,43.13
2023-03-29T21:43:09.685Z,43.25
2023-03-29T21:45:38.609Z,43.19
2023-03-29T21:48:10.049Z,43.48
2023-03-29T21:50:39.195Z,43.50
2023-03-29T21:53:08.160Z,43.63
2023-03-29T21:55:38.765Z,43.53
2023-03-29T21:58:08.897Z,43.72
2023-03-29T22:00:39.384Z,43.55
2023-03-29T22:03:10.276Z,43.78
2023-03-29T22:05:55.097Z,43.94
2023-03-29T22:08:26.917Z,43.89
2023-03-29T22:10:57.181Z,43.74
2023-03-29T22:13:28.115Z,43.83
2023-03-29T22:16:01.509Z,43.99
2023-03-29T22:18:43.162Z,44.02
2023-03-29T22:22:01.867Z,44.20
2023-03-29T22:24:32.935Z,44.27
2023-03-29T22:27:02.025Z,44.25
2023-03-29T22:29:30.669Z,44.39
2023-03-29T22:32:01.678Z,44.42
2023-03-29T22:34:32.533Z,44.54
2023-03-29T22:37:03.288Z,44.64
2023-03-29T22:39:35.661Z,44.62
2023-03-29T22:42:04.628Z,44.59
2023-03-29T22:44:35.307Z,44.74
2023-03-29T22:47:04.299Z,44.84
2023-03-29T22:49:33.112Z,44.78
2023-03-29T22:52:01.876Z,44.72
2023-03-29T22:54:30.790Z,44.94
2023-03-29T22:57:01.177Z,45.08
2023-03-29T22:59:29.934Z,45.21
2023-03-29T23:02:01.096Z,45.26
2023-03-29T23:04:31.215Z,45.38
2023-03-29T23:07:00.989Z,45.54
2023-03-29T23:09:30.575Z,45.50
2023-03-29T23:11:59.840Z,45.23
2023-03-29T23:14:28.907Z,45.44
2023-03-29T23:16:58.752Z,45.65
2023-03-29T23:19:28.761Z,45.54
2023-03-29T23:21:57.853Z,45.85
2023-03-29T23:24:30.951Z,45.86
2023-03-29T23:27:03.399Z,45.99
2023-03-29T23:29:35.020Z,45.86
2023-03-29T23:32:03.816Z,45.97
2023-03-29T23:34:34.813Z,46.17
2023-03-29T23:37:04.632Z,46.15
2023-03-29T23:39:34.353Z,46.02
2023-03-29T23:42:04.379Z,46.10
2023-03-29T23:44:33.165Z,46.28
2023-03-29T23:47:03.494Z,46.16
2023-03-29T23:49:34.388Z,46.29
2023-03-29T23:52:04.362Z,46.37
2023-03-29T23:54:34.489Z,46.45
2023-03-29T23:57:05.153Z,46.62
2023-03-29T23:59:38.139Z,46.54
